EGPA

Kirkwall Airport

Airport
ICAO code
EGPA
IATA Code
KOI
Summary
ICAO Region
EUR
ICAO Territory
Location

Grimsetter, Kirkwall, Orkney, Scotland

Serving
Kirkwall
Elevation
58 ft
Coordinates
58° 57' 30" N , 2° 54' 19" W
KCC
Cfb
Metar
Observation
EGPA 110450Z AUTO 29001KT 9999 OVC012/// 14/13 Q1021
Station
Kirkwall Airport
Date/Time
2022-08-11 04:50:00
Wind direction
290°
Wind speed
01 kts
Lowest cloud amount
overcast
Temperature
14°C
Dew point
13°C
Humidity
93%
QNH
1021 hPa
Weather condition
n/a

Description

Kirkwall Airport is the main airport serving the Orkney Islands in Scotland. It is located 2.5 nm southeast of the town of Kirkwall.

Climatology

Temperate Marine climate/Oceanic climate (Köppen climate classification Cfb). Moderately cool summer and comparatively warm winter with a temperature range of only 14°C. Prevailing south-westerly winds from the Atlantic Ocean.

Runways

Designator Length Width Surface Rops
15/33 680 18 ASP No/No
6/24 1183 46 ASP No/No
9/27 1428 46 ASP No/No

Airport map

Aerial View

Airport accidents

SKYbrary Partners:

Safety knowledge contributed by: